| time (UTC) | temp C | wind direction | speed KPH | gust KPH | rain 1hr cm | rain 24hr cm | rain mn cm | humidity % | barometer mb |
| 20260903033732 | 13 | 93 | 0.0 | 3.2 | 0.00 | 0.76 | 0.76 | 94 | 1008.2 |
| 20260903033239 | 13 | 93 | 0.0 | 3.2 | 0.00 | 0.76 | 0.76 | 93 | 1008.0 |
| 20260903032806 | 13 | 93 | 0.0 | 0.0 | 0.00 | 0.76 | 0.76 | 93 | 1007.9 |
| 20260903032734 | 13 | 93 | 0.0 | 0.0 | 0.00 | 0.76 | 0.76 | 93 | 1007.9 |
| 20260903032222 | 13 | 93 | 0.0 | 0.0 | 0.00 | 0.76 | 0.76 | 93 | 1007.8 |
| 20260903031728 | 13 | 93 | 0.0 | 0.0 | 0.00 | 0.76 | 0.76 | 93 | 1007.8 |
| 20260903031235 | 13 | 93 | 0.0 | 4.8 | 0.00 | 0.76 | 0.76 | 93 | 1007.7 |
| 20260903030726 | 13 | 93 | 0.0 | 4.8 | 0.00 | 0.76 | 0.76 | 94 | 1007.7 |
| 20260903030233 | 13 | 66 | 0.0 | 1.6 | 0.00 | 0.76 | 0.76 | 93 | 1007.7 |
| 20260903025800 | 13 | 65 | 1.6 | 3.2 | 0.00 | 0.76 | 0.76 | 93 | 1007.8 |
| 20260903025236 | 13 | 65 | 0.0 | 3.2 | 0.00 | 0.76 | 0.76 | 93 | 1007.7 |
| 20260903024722 | 13 | 65 | 0.0 | 3.2 | 0.00 | 0.76 | 0.76 | 93 | 1007.7 |
| 20260903024229 | 13 | 100 | 0.0 | 0.0 | 0.00 | 0.76 | 0.76 | 92 | 1007.5 |
| 20260903023736 | 13 | 99 | 0.0 | 1.6 | 0.00 | 0.76 | 0.76 | 92 | 1007.5 |
| 20260903023223 | 13 | 99 | 0.0 | 3.2 | 0.00 | 0.76 | 0.76 | 92 | 1007.5 |
| 20260903022811 | 13 | 99 | 0.0 | 3.2 | 0.00 | 0.76 | 0.76 | 92 | 1007.4 |
| 20260903022227 | 13 | 99 | 0.0 | 3.2 | 0.00 | 0.76 | 0.76 | 91 | 1007.5 |
| 20260903021733 | 13 | 100 | 0.0 | 3.2 | 0.00 | 0.76 | 0.76 | 91 | 1007.4 |
| 20260903021220 | 14 | 99 | 0.0 | 3.2 | 0.00 | 0.76 | 0.76 | 90 | 1007.4 |
| 20260903020731 | 14 | 89 | 0.0 | 9.7 | 0.00 | 0.76 | 0.76 | 90 | 1007.3 |
| 20260903020237 | 14 | 196 | 1.6 | 9.7 | 0.03 | 0.76 | 0.76 | 90 | 1007.4 |
| 20260903015724 | 15 | 107 | 3.2 | 4.8 | 0.03 | 0.76 | 0.76 | 92 | 1007.4 |
| 20260903015232 | 15 | 88 | 0.0 | 3.2 | 0.05 | 0.76 | 0.76 | 92 | 1007.3 |
| 20260903014758 | 15 | 76 | 0.0 | 3.2 | 0.08 | 0.76 | 0.76 | 92 | 1007.3 |
| 20260903014726 | 15 | 76 | 0.0 | 3.2 | 0.08 | 0.76 | 0.76 | 92 | 1007.3 |
| 20260903014233 | 15 | 30 | 1.6 | 3.2 | 0.10 | 0.76 | 0.76 | 91 | 1007.2 |
| 20260903013720 | 14 | 76 | 1.6 | 4.8 | 0.13 | 0.76 | 0.76 | 92 | 1007.2 |
| 20260903013307 | 14 | 299 | 0.0 | 4.8 | 0.15 | 0.76 | 0.76 | 92 | 1007.2 |
| 20260903013235 | 14 | 299 | 0.0 | 4.8 | 0.15 | 0.76 | 0.76 | 92 | 1007.2 |
| 20260903012803 | 14 | 161 | 0.0 | 9.7 | 0.15 | 0.76 | 0.76 | 91 | 1007.0 |
| 20260903012239 | 14 | 297 | 3.2 | 9.7 | 0.15 | 0.76 | 0.76 | 91 | 1006.9 |
| 20260903011725 | 14 | 88 | 0.0 | 9.7 | 0.15 | 0.76 | 0.76 | 91 | 1006.7 |
| 20260903011232 | 14 | 113 | 3.2 | 9.7 | 0.15 | 0.76 | 0.76 | 91 | 1006.6 |
| 20260903010739 | 14 | 114 | 1.6 | 8.0 | 0.15 | 0.76 | 0.76 | 91 | 1006.5 |
| 20260903010230 | 14 | 124 | 0.0 | 3.2 | 0.13 | 0.74 | 0.74 | 92 | 1006.5 |
| 20260903005737 | 14 | 149 | 0.0 | 6.4 | 0.13 | 0.74 | 0.74 | 91 | 1006.4 |
| 20260903005225 | 14 | 61 | 1.6 | 11.3 | 0.10 | 0.71 | 0.71 | 91 | 1006.5 |
| 20260903004731 | 15 | 163 | 3.2 | 11.3 | 0.08 | 0.69 | 0.69 | 91 | 1006.5 |
| 20260903004238 | 15 | 223 | 4.8 | 11.3 | 0.05 | 0.66 | 0.66 | 92 | 1006.4 |
| 20260903003725 | 15 | 210 | 1.6 | 11.3 | 0.03 | 0.64 | 0.64 | 93 | 1006.4 |
| 20260903003232 | 15 | 10 | 1.6 | 11.3 | 0.00 | 0.61 | 0.61 | 93 | 1006.3 |
| 20260903002759 | 15 | 20 | 1.6 | 6.4 | 0.00 | 0.61 | 0.61 | 93 | 1006.2 |
| 20260903002727 | 15 | 20 | 1.6 | 6.4 | 0.00 | 0.61 | 0.61 | 93 | 1006.2 |
| 20260903002235 | 15 | 259 | 3.2 | 6.4 | 0.00 | 0.61 | 0.61 | 93 | 1005.8 |
| 20260903001802 | 15 | 323 | 1.6 | 3.2 | 0.03 | 0.61 | 0.61 | 93 | 1005.5 |
| 20260903001729 | 15 | 323 | 1.6 | 3.2 | 0.03 | 0.61 | 0.61 | 93 | 1005.5 |
| 20260903001257 | 15 | 96 | 0.0 | 3.2 | 0.03 | 0.61 | 0.61 | 92 | 1005.6 |
| 20260903000732 | 15 | 105 | 0.0 | 3.2 | 0.05 | 0.61 | 0.61 | 92 | 1005.4 |
| 20260903000241 | 15 | 121 | 0.0 | 6.4 | 0.08 | 0.61 | 0.61 | 93 | 1005.5 |
| 20260902235807 | 15 | 99 | 1.6 | 4.8 | 0.10 | 0.61 | 0.61 | 92 | 1005.5 |
| 20260902235228 | 15 | 82 | 3.2 | 4.8 | 0.13 | 0.61 | 0.61 | 92 | 1005.5 |
| 20260902234733 | 15 | 69 | 1.6 | 4.8 | 0.13 | 0.61 | 0.61 | 92 | 1005.5 |
| 20260902234220 | 15 | 79 | 1.6 | 6.4 | 0.15 | 0.61 | 0.61 | 92 | 1005.5 |
| 20260902233807 | 15 | 86 | 0.0 | 4.8 | 0.18 | 0.61 | 0.61 | 92 | 1005.6 |
| 20260902233735 | 15 | 86 | 0.0 | 4.8 | 0.18 | 0.61 | 0.61 | 92 | 1005.6 |
| 20260902233222 | 15 | 71 | 1.6 | 6.4 | 0.20 | 0.61 | 0.61 | 92 | 1005.6 |
| 20260902232729 | 15 | 57 | 1.6 | 6.4 | 0.20 | 0.61 | 0.61 | 92 | 1005.5 |
| 20260902232237 | 15 | 69 | 1.6 | 6.4 | 0.23 | 0.61 | 0.61 | 92 | 1005.6 |
| 20260902231723 | 15 | 84 | 3.2 | 6.4 | 0.23 | 0.58 | 0.58 | 92 | 1005.7 |
| 20260902231231 | 15 | 64 | 3.2 | 8.0 | 0.23 | 0.58 | 0.58 | 91 | 1005.8 |
| 20260902230738 | 15 | 73 | 0.0 | 8.0 | 0.23 | 0.56 | 0.56 | 91 | 1005.9 |
| 20260902230305 | 15 | 69 | 1.6 | 4.8 | 0.23 | 0.53 | 0.53 | 91 | 1006.1 |
| 20260902230233 | 15 | 69 | 1.6 | 4.8 | 0.23 | 0.53 | 0.53 | 91 | 1006.1 |
| 20260902225735 | 15 | 87 | 1.6 | 3.2 | 0.23 | 0.51 | 0.51 | 92 | 1006.1 |
| 20260902225306 | 15 | 78 | 1.6 | 3.2 | 0.20 | 0.48 | 0.48 | 91 | 1006.1 |
| 20260902224721 | 15 | 236 | 0.0 | 3.2 | 0.23 | 0.48 | 0.48 | 91 | 1006.2 |
| 20260902224305 | 15 | 103 | 0.0 | 3.2 | 0.23 | 0.46 | 0.46 | 90 | 1006.1 |
| 20260902223723 | 15 | 66 | 0.0 | 4.8 | 0.20 | 0.43 | 0.43 | 90 | 1005.9 |
| 20260902223307 | 15 | 68 | 1.6 | 4.8 | 0.18 | 0.41 | 0.41 | 90 | 1005.7 |
| 20260902222741 | 15 | 101 | 0.0 | 3.2 | 0.20 | 0.41 | 0.41 | 90 | 1005.7 |
| 20260902222306 | 15 | 84 | 0.0 | 3.2 | 0.18 | 0.38 | 0.38 | 90 | 1005.8 |
| 20260902221739 | 15 | 87 | 0.0 | 3.2 | 0.18 | 0.36 | 0.36 | 89 | 1005.8 |
| 20260902221223 | 15 | 62 | 1.6 | 3.2 | 0.18 | 0.36 | 0.36 | 89 | 1005.9 |
| 20260902220808 | 16 | 327 | 0.0 | 0.0 | 0.18 | 0.33 | 0.33 | 89 | 1006.0 |
| 20260902220736 | 16 | 327 | 0.0 | 0.0 | 0.18 | 0.33 | 0.33 | 89 | 1006.0 |
| 20260902220300 | 16 | 327 | 0.0 | 0.0 | 0.15 | 0.30 | 0.30 | 87 | 1006.1 |
| 20260902220228 | 16 | 327 | 0.0 | 0.0 | 0.15 | 0.30 | 0.30 | 87 | 1006.1 |
| 20260902215732 | 16 | 327 | 0.0 | 0.0 | 0.13 | 0.28 | 0.28 | 87 | 1006.0 |
| 20260902215257 | 16 | 331 | 0.0 | 0.0 | 0.13 | 0.25 | 0.25 | 87 | 1006.0 |
| 20260902215225 | 16 | 331 | 0.0 | 0.0 | 0.13 | 0.25 | 0.25 | 87 | 1006.0 |
| 20260902214729 | 16 | 331 | 0.0 | 0.0 | 0.13 | 0.25 | 0.25 | 88 | 1006.0 |
| 20260902214222 | 16 | 314 | 0.0 | 0.0 | 0.10 | 0.23 | 0.23 | 85 | 1006.1 |
| 20260902213729 | 16 | 9 | 0.0 | 3.2 | 0.10 | 0.23 | 0.23 | 86 | 1006.2 |
| 20260902213256 | 16 | 18 | 0.0 | 3.2 | 0.08 | 0.20 | 0.20 | 84 | 1006.1 |
| 20260902213224 | 16 | 18 | 0.0 | 3.2 | 0.08 | 0.20 | 0.20 | 84 | 1006.1 |
| 20260902212751 | 16 | 18 | 0.0 | 3.2 | 0.08 | 0.20 | 0.20 | 84 | 1006.1 |
| 20260902212228 | 16 | 355 | 0.0 | 3.2 | 0.08 | 0.20 | 0.20 | 84 | 1006.2 |
| 20260902211754 | 16 | 355 | 1.6 | 4.8 | 0.05 | 0.18 | 0.18 | 82 | 1006.0 |
| 20260902211230 | 16 | 236 | 1.6 | 3.2 | 0.05 | 0.18 | 0.18 | 82 | 1006.1 |
| 20260902210753 | 17 | 298 | 0.0 | 3.2 | 0.03 | 0.15 | 0.15 | 82 | 1006.1 |
| 20260902210228 | 17 | 142 | 0.0 | 3.2 | 0.03 | 0.15 | 0.15 | 82 | 1006.0 |
| 20260902205735 | 17 | 339 | 0.0 | 3.2 | 0.03 | 0.15 | 0.15 | 81 | 1006.1 |
| 20260902205227 | 17 | 309 | 1.6 | 6.4 | 0.00 | 0.13 | 0.13 | 79 | 1006.1 |
| 20260902204728 | 17 | 338 | 1.6 | 6.4 | 0.00 | 0.13 | 0.13 | 78 | 1006.2 |
| 20260902204235 | 18 | 144 | 1.6 | 4.8 | 0.03 | 0.13 | 0.13 | 83 | 1006.2 |
| 20260902203722 | 17 | 19 | 0.0 | 4.8 | 0.08 | 0.13 | 0.13 | 82 | 1006.2 |
| 20260902203309 | 17 | 9 | 0.0 | 4.8 | 0.10 | 0.13 | 0.13 | 79 | 1006.1 |
| 20260902202724 | 17 | 212 | 0.0 | 3.2 | 0.10 | 0.13 | 0.13 | 80 | 1006.0 |
| 20260902202232 | 17 | 116 | 0.0 | 3.2 | 0.10 | 0.13 | 0.13 | 79 | 1006.1 |
| 20260902201305 | 17 | 84 | 0.0 | 3.2 | 0.10 | 0.13 | 0.13 | 82 | 1006.0 |
| 20260902200720 | 17 | 84 | 1.6 | 3.2 | 0.10 | 0.13 | 0.13 | 81 | 1006.2 |
| 20260902200227 | 17 | 73 | 1.6 | 3.2 | 0.10 | 0.13 | 0.13 | 84 | 1006.2 |
| 20260902195734 | 17 | 68 | 0.0 | 3.2 | 0.10 | 0.13 | 0.13 | 84 | 1006.3 |
| 20260902195226 | 17 | 62 | 1.6 | 3.2 | 0.10 | 0.13 | 0.13 | 84 | 1006.3 |
| 20260902194732 | 17 | 355 | 1.6 | 4.8 | 0.10 | 0.13 | 0.13 | 84 | 1006.3 |
| 20260902194239 | 17 | 292 | 1.6 | 9.7 | 0.08 | 0.10 | 0.10 | 79 | 1006.4 |
| 20260902193806 | 17 | 339 | 1.6 | 22.5 | 0.03 | 0.05 | 0.05 | 73 | 1006.6 |
| 20260902193220 | 19 | 229 | 8.0 | 22.5 | 0.00 | 0.03 | 0.03 | 63 | 1006.4 |
| 20260902192727 | 20 | 241 | 1.6 | 4.8 | 0.00 | 0.03 | 0.03 | 57 | 1006.5 |
| 20260902192255 | 20 | 165 | 0.0 | 6.4 | 0.00 | 0.03 | 0.03 | 56 | 1006.3 |
| 20260902191729 | 20 | 161 | 3.2 | 8.0 | 0.00 | 0.03 | 0.03 | 57 | 1006.1 |
| 20260902191236 | 20 | 284 | 1.6 | 8.0 | 0.00 | 0.03 | 0.03 | 59 | 1006.3 |
| 20260902190804 | 20 | 323 | 1.6 | 9.7 | 0.00 | 0.03 | 0.03 | 58 | 1006.2 |
| 20260902190732 | 20 | 323 | 1.6 | 9.7 | 0.00 | 0.03 | 0.03 | 58 | 1006.2 |
| 20260902190259 | 20 | 284 | 3.2 | 9.7 | 0.00 | 0.03 | 0.03 | 59 | 1006.3 |
| 20260902190227 | 20 | 284 | 3.2 | 9.7 | 0.00 | 0.03 | 0.03 | 59 | 1006.3 |
| 20260902185734 | 20 | 107 | 3.2 | 4.8 | 0.00 | 0.03 | 0.03 | 61 | 1006.3 |
| 20260902185222 | 19 | 128 | 1.6 | 11.3 | 0.00 | 0.03 | 0.03 | 64 | 1006.3 |
| 20260902184728 | 19 | 74 | 3.2 | 11.3 | 0.00 | 0.03 | 0.03 | 61 | 1006.3 |
| 20260902184235 | 19 | 103 | 3.2 | 9.7 | 0.00 | 0.03 | 0.03 | 61 | 1006.3 |
| 20260902183726 | 18 | 26 | 3.2 | 9.7 | 0.00 | 0.03 | 0.03 | 65 | 1006.3 |
| 20260902183233 | 18 | 134 | 4.8 | 9.7 | 0.00 | 0.03 | 0.03 | 66 | 1006.5 |
| 20260902182720 | 18 | 121 | 3.2 | 6.4 | 0.00 | 0.03 | 0.03 | 69 | 1006.5 |
| 20260902182309 | 18 | 84 | 1.6 | 3.2 | 0.00 | 0.03 | 0.03 | 69 | 1006.6 |
| 20260902181723 | 18 | 81 | 1.6 | 3.2 | 0.00 | 0.03 | 0.03 | 70 | 1006.7 |
| 20260902181229 | 17 | 78 | 1.6 | 4.8 | 0.00 | 0.03 | 0.03 | 74 | 1006.7 |
| 20260902180736 | 17 | 67 | 1.6 | 4.8 | 0.00 | 0.03 | 0.03 | 76 | 1006.8 |
| 20260902180303 | 17 | 90 | 1.6 | 3.2 | 0.00 | 0.03 | 0.03 | 75 | 1006.8 |
| 20260902175759 | 17 | 90 | 0.0 | 3.2 | 0.00 | 0.03 | 0.03 | 73 | 1006.8 |
| 20260902175727 | 17 | 90 | 0.0 | 3.2 | 0.00 | 0.03 | 0.03 | 73 | 1006.8 |
| 20260902175256 | 17 | 90 | 0.0 | 4.8 | 0.00 | 0.03 | 0.03 | 73 | 1006.8 |
| 20260902174730 | 17 | 48 | 1.6 | 3.2 | 0.00 | 0.03 | 0.03 | 70 | 1006.9 |
| 20260902174237 | 17 | 37 | 0.0 | 3.2 | 0.00 | 0.03 | 0.03 | 74 | 1006.9 |
| 20260902173723 | 17 | 17 | 0.0 | 4.8 | 0.00 | 0.03 | 0.03 | 70 | 1007.0 |
| 20260902173230 | 17 | 101 | 1.6 | 4.8 | 0.00 | 0.03 | 0.03 | 70 | 1007.0 |
| 20260902172721 | 17 | 53 | 0.0 | 3.2 | 0.00 | 0.03 | 0.03 | 75 | 1007.1 |
| 20260902172230 | 17 | 52 | 0.0 | 6.4 | 0.00 | 0.03 | 0.03 | 75 | 1007.2 |
| 20260902171735 | 17 | 83 | 3.2 | 6.4 | 0.00 | 0.03 | 0.03 | 73 | 1007.1 |
| 20260902171222 | 17 | 104 | 0.0 | 3.2 | 0.00 | 0.03 | 0.03 | 75 | 1007.3 |
| 20260902170730 | 17 | 82 | 1.6 | 4.8 | 0.00 | 0.03 | 0.03 | 75 | 1007.3 |
| 20260902170236 | 17 | 100 | 0.0 | 4.8 | 0.00 | 0.03 | 0.03 | 75 | 1007.4 |
| 20260902165804 | 17 | 115 | 1.6 | 4.8 | 0.00 | 0.03 | 0.03 | 73 | 1007.5 |
| 20260902165732 | 17 | 115 | 1.6 | 4.8 | 0.00 | 0.03 | 0.03 | 73 | 1007.5 |
| 20260902165300 | 17 | 77 | 0.0 | 3.2 | 0.00 | 0.03 | 0.03 | 74 | 1007.5 |
| 20260902164733 | 17 | 148 | 0.0 | 3.2 | 0.00 | 0.03 | 0.03 | 72 | 1007.7 |
| 20260902164301 | 17 | 175 | 0.0 | 6.4 | 0.00 | 0.03 | 0.03 | 73 | 1007.7 |
| 20260902163756 | 17 | 223 | 0.0 | 6.4 | 0.00 | 0.03 | 0.03 | 74 | 1007.7 |
| 20260902163724 | 17 | 223 | 0.0 | 6.4 | 0.00 | 0.03 | 0.03 | 74 | 1007.7 |
| 20260902162738 | 17 | 156 | 0.0 | 3.2 | 0.00 | 0.03 | 0.03 | 73 | 1007.7 |
| 20260902162307 | 17 | 271 | 0.0 | 3.2 | 0.00 | 0.03 | 0.03 | 73 | 1007.7 |
| 20260902162235 | 17 | 271 | 0.0 | 3.2 | 0.00 | 0.03 | 0.03 | 73 | 1007.7 |
| 20260902161733 | 17 | 329 | 0.0 | 4.8 | 0.00 | 0.03 | 0.03 | 74 | 1007.7 |
| 20260902161225 | 17 | 253 | 0.0 | 4.8 | 0.00 | 0.03 | 0.03 | 71 | 1007.7 |
| 20260902160731 | 17 | 118 | 1.6 | 4.8 | 0.00 | 0.03 | 0.03 | 73 | 1007.6 |
| 20260902160238 | 17 | 115 | 1.6 | 3.2 | 0.00 | 0.03 | 0.03 | 78 | 1007.7 |
| 20260902155805 | 17 | 82 | 0.0 | 3.2 | 0.00 | 0.03 | 0.03 | 79 | 1007.7 |
| 20260902155222 | 17 | 82 | 0.0 | 6.4 | 0.00 | 0.03 | 0.03 | 76 | 1007.6 |
| 20260902154727 | 17 | 90 | 1.6 | 6.4 | 0.00 | 0.03 | 0.03 | 79 | 1007.8 |
| 20260902154255 | 17 | 87 | 1.6 | 4.8 | 0.00 | 0.03 | 0.03 | 81 | 1007.8 |
| 20260902153730 | 16 | 53 | 0.0 | 3.2 | 0.00 | 0.03 | 0.03 | 83 | 1008.1 |
| 20260902153238 | 16 | 53 | 1.6 | 3.2 | 0.00 | 0.03 | 0.03 | 85 | 1008.0 |
| 20260902152805 | 16 | 53 | 0.0 | 1.6 | 0.00 | 0.03 | 0.03 | 87 | 1008.1 |
| 20260902152302 | 15 | 53 | 0.0 | 0.0 | 0.00 | 0.03 | 0.03 | 90 | 1008.0 |
| 20260902151737 | 15 | 53 | 0.0 | 0.0 | 0.00 | 0.03 | 0.03 | 92 | 1008.2 |
| 20260902151223 | 14 | 53 | 0.0 | 0.0 | 0.00 | 0.03 | 0.03 | 92 | 1008.1 |
| 20260902150730 | 14 | 53 | 0.0 | 0.0 | 0.00 | 0.03 | 0.03 | 92 | 1008.2 |
| 20260902150221 | 14 | 53 | 0.0 | 0.0 | 0.00 | 0.03 | 0.03 | 92 | 1008.2 |
| 20260902145728 | 14 | 53 | 0.0 | 0.0 | 0.00 | 0.03 | 0.03 | 93 | 1008.2 |
| 20260902145236 | 14 | 53 | 0.0 | 0.0 | 0.00 | 0.03 | 0.03 | 93 | 1008.3 |
| 20260902144722 | 14 | 53 | 0.0 | 0.0 | 0.00 | 0.03 | 0.03 | 94 | 1008.4 |
| 20260902144229 | 13 | 53 | 0.0 | 0.0 | 0.00 | 0.03 | 0.03 | 94 | 1008.5 |
| 20260902143736 | 13 | 53 | 0.0 | 0.0 | 0.00 | 0.03 | 0.03 | 95 | 1008.6 |
| 20260902143303 | 13 | 53 | 0.0 | 0.0 | 0.00 | 0.03 | 0.03 | 95 | 1008.7 |
| 20260902143231 | 13 | 53 | 0.0 | 0.0 | 0.00 | 0.03 | 0.03 | 95 | 1008.7 |
| 20260902142738 | 13 | 53 | 0.0 | 0.0 | 0.00 | 0.03 | 0.03 | 95 | 1008.7 |
| 20260902142227 | 12 | 53 | 0.0 | 0.0 | 0.00 | 0.03 | 0.03 | 94 | 1008.9 |
| 20260902141732 | 12 | 53 | 0.0 | 0.0 | 0.00 | 0.03 | 0.03 | 94 | 1008.9 |
| 20260902141239 | 12 | 53 | 0.0 | 0.0 | 0.00 | 0.03 | 0.03 | 94 | 1008.8 |
| 20260902140730 | 12 | 53 | 0.0 | 0.0 | 0.00 | 0.03 | 0.03 | 94 | 1008.7 |
| 20260902140257 | 12 | 53 | 0.0 | 0.0 | 0.00 | 0.03 | 0.03 | 94 | 1008.8 |
| 20260902135732 | 12 | 53 | 0.0 | 0.0 | 0.00 | 0.03 | 0.03 | 94 | 1008.7 |
| 20260902135300 | 12 | 53 | 0.0 | 0.0 | 0.00 | 0.03 | 0.03 | 94 | 1008.7 |
| 20260902134734 | 12 | 53 | 0.0 | 0.0 | 0.00 | 0.03 | 0.03 | 94 | 1008.6 |
| 20260902134221 | 12 | 53 | 0.0 | 0.0 | 0.00 | 0.03 | 0.03 | 93 | 1008.6 |
| 20260902133728 | 12 | 53 | 0.0 | 0.0 | 0.00 | 0.03 | 0.03 | 93 | 1008.7 |
| 20260902133235 | 12 | 53 | 0.0 | 0.0 | 0.00 | 0.03 | 0.03 | 93 | 1008.7 |
| 20260902132722 | 12 | 53 | 0.0 | 0.0 | 0.00 | 0.03 | 0.03 | 93 | 1008.7 |
| 20260902132230 | 13 | 53 | 0.0 | 0.0 | 0.00 | 0.03 | 0.03 | 93 | 1008.7 |
| 20260902131756 | 13 | 53 | 0.0 | 0.0 | 0.00 | 0.03 | 0.03 | 93 | 1008.7 |
| 20260902131232 | 13 | 53 | 0.0 | 0.0 | 0.00 | 0.03 | 0.03 | 93 | 1008.7 |
| 20260902130759 | 13 | 53 | 0.0 | 0.0 | 0.00 | 0.03 | 0.03 | 92 | 1008.8 |
| 20260902130234 | 13 | 53 | 0.0 | 0.0 | 0.00 | 0.03 | 0.03 | 93 | 1009.0 |
| 20260902125222 | 13 | 53 | 0.0 | 0.0 | 0.00 | 0.03 | 0.03 | 93 | 1009.0 |
| 20260902124728 | 13 | 53 | 0.0 | 0.0 | 0.00 | 0.03 | 0.03 | 93 | 1009.1 |
| 20260902124235 | 13 | 53 | 0.0 | 0.0 | 0.00 | 0.03 | 0.03 | 93 | 1009.2 |
| 20260902123802 | 13 | 53 | 0.0 | 0.0 | 0.00 | 0.03 | 0.03 | 93 | 1009.2 |
| 20260902123238 | 13 | 53 | 0.0 | 0.0 | 0.00 | 0.03 | 0.03 | 93 | 1009.2 |
| 20260902122725 | 13 | 53 | 0.0 | 0.0 | 0.00 | 0.03 | 0.03 | 93 | 1009.2 |
| 20260902122253 | 13 | 53 | 0.0 | 0.0 | 0.00 | 0.03 | 0.03 | 93 | 1009.2 |
| 20260902122221 | 13 | 53 | 0.0 | 0.0 | 0.00 | 0.03 | 0.03 | 93 | 1009.2 |
| 20260902121727 | 13 | 53 | 0.0 | 0.0 | 0.00 | 0.03 | 0.03 | 93 | 1009.2 |
| 20260902121234 | 13 | 53 | 0.0 | 0.0 | 0.00 | 0.03 | 0.03 | 93 | 1009.3 |
| 20260902120721 | 13 | 53 | 0.0 | 0.0 | 0.00 | 0.03 | 0.03 | 93 | 1009.3 |
| 20260902120228 | 13 | 53 | 0.0 | 3.2 | 0.00 | 0.03 | 0.03 | 93 | 1009.4 |
| 20260902115756 | 13 | 53 | 0.0 | 3.2 | 0.00 | 0.03 | 0.03 | 93 | 1009.4 |
| 20260902115232 | 13 | 53 | 0.0 | 3.2 | 0.00 | 0.03 | 0.03 | 93 | 1009.4 |
| 20260902114258 | 13 | 335 | 0.0 | 0.0 | 0.00 | 0.03 | 0.03 | 93 | 1009.6 |
| 20260902113733 | 13 | 335 | 0.0 | 0.0 | 0.00 | 0.03 | 0.03 | 93 | 1009.6 |
| 20260902113224 | 13 | 335 | 0.0 | 0.0 | 0.00 | 0.03 | 0.03 | 93 | 1009.6 |
| 20260902112731 | 13 | 335 | 0.0 | 0.0 | 0.00 | 0.03 | 0.03 | 93 | 1009.6 |
| 20260902112239 | 14 | 335 | 0.0 | 0.0 | 0.00 | 0.03 | 0.03 | 93 | 1009.7 |
| 20260902111725 | 14 | 335 | 0.0 | 0.0 | 0.00 | 0.03 | 0.03 | 93 | 1009.7 |
| 20260902111232 | 14 | 335 | 0.0 | 0.0 | 0.00 | 0.03 | 0.03 | 93 | 1009.7 |
| 20260902110739 | 14 | 335 | 0.0 | 0.0 | 0.00 | 0.03 | 0.03 | 93 | 1009.8 |
| 20260902110306 | 14 | 335 | 0.0 | 0.0 | 0.00 | 0.03 | 0.03 | 93 | 1009.8 |
| 20260902110234 | 14 | 335 | 0.0 | 0.0 | 0.00 | 0.03 | 0.03 | 93 | 1009.8 |
| 20260902105721 | 14 | 335 | 0.0 | 0.0 | 0.00 | 0.03 | 0.03 | 93 | 1009.8 |
| 20260902105309 | 14 | 335 | 0.0 | 0.0 | 0.00 | 0.03 | 0.03 | 93 | 1009.9 |
| 20260902105238 | 14 | 335 | 0.0 | 0.0 | 0.00 | 0.03 | 0.03 | 93 | 1009.9 |
| 20260902104310 | 14 | 277 | 0.0 | 0.0 | 0.00 | 0.03 | 0.03 | 94 | 1009.9 |
| 20260902103725 | 14 | 277 | 0.0 | 0.0 | 0.00 | 0.03 | 0.03 | 93 | 1009.9 |
| 20260902103232 | 14 | 277 | 0.0 | 0.0 | 0.00 | 0.03 | 0.03 | 93 | 1010.0 |
| 20260902102723 | 14 | 277 | 0.0 | 3.2 | 0.00 | 0.03 | 0.03 | 93 | 1010.0 |
| 20260902102231 | 14 | 277 | 0.0 | 3.2 | 0.00 | 0.03 | 0.03 | 93 | 1010.1 |
| 20260902101757 | 14 | 70 | 0.0 | 0.0 | 0.00 | 0.03 | 0.03 | 93 | 1010.2 |
| 20260902101252 | 14 | 70 | 0.0 | 0.0 | 0.00 | 0.03 | 0.03 | 93 | 1010.1 |
| 20260902101221 | 14 | 70 | 0.0 | 0.0 | 0.00 | 0.03 | 0.03 | 93 | 1010.1 |
| 20260902100727 | 14 | 70 | 0.0 | 0.0 | 0.00 | 0.03 | 0.03 | 93 | 1010.2 |
| 20260902100234 | 14 | 70 | 0.0 | 0.0 | 0.00 | 0.03 | 0.03 | 92 | 1010.2 |
| 20260902095721 | 14 | 70 | 0.0 | 0.0 | 0.03 | 0.03 | 0.03 | 92 | 1010.2 |
| 20260902095228 | 14 | 70 | 0.0 | 0.0 | 0.03 | 0.03 | 0.03 | 92 | 1010.2 |
| 20260902094734 | 14 | 70 | 0.0 | 0.0 | 0.03 | 0.03 | 0.03 | 92 | 1010.2 |
| 20260902094221 | 14 | 70 | 0.0 | 0.0 | 0.03 | 0.03 | 0.03 | 92 | 1010.3 |
| 20260902093728 | 14 | 70 | 0.0 | 0.0 | 0.03 | 0.03 | 0.03 | 92 | 1010.2 |
| 20260902093234 | 14 | 70 | 0.0 | 0.0 | 0.03 | 0.03 | 0.03 | 92 | 1010.3 |
| 20260902092725 | 14 | 70 | 0.0 | 0.0 | 0.03 | 0.03 | 0.03 | 92 | 1010.2 |
| 20260902092233 | 14 | 70 | 0.0 | 0.0 | 0.03 | 0.03 | 0.03 | 92 | 1010.4 |
| 20260902091739 | 15 | 70 | 0.0 | 0.0 | 0.03 | 0.03 | 0.03 | 92 | 1010.3 |
| 20260902091226 | 15 | 70 | 0.0 | 0.0 | 0.03 | 0.03 | 0.03 | 92 | 1010.4 |
| 20260902090753 | 15 | 70 | 0.0 | 0.0 | 0.03 | 0.03 | 0.03 | 92 | 1010.4 |
| 20260902090228 | 15 | 70 | 0.0 | 0.0 | 0.03 | 0.03 | 0.03 | 92 | 1010.5 |
| 20260902085735 | 15 | 70 | 0.0 | 0.0 | 0.00 | 0.00 | 0.00 | 92 | 1010.5 |
| 20260902085223 | 15 | 70 | 0.0 | 0.0 | 0.00 | 0.00 | 0.00 | 92 | 1010.6 |
| 20260902084729 | 15 | 70 | 0.0 | 0.0 | 0.00 | 0.00 | 0.00 | 92 | 1010.7 |
| 20260902084237 | 15 | 70 | 0.0 | 0.0 | 0.00 | 0.00 | 0.00 | 92 | 1010.7 |
| 20260902083804 | 15 | 70 | 0.0 | 0.0 | 0.00 | 0.00 | 0.00 | 91 | 1010.7 |
| 20260902083259 | 15 | 70 | 0.0 | 0.0 | 0.00 | 0.00 | 0.00 | 91 | 1010.8 |
| 20260902082734 | 15 | 70 | 0.0 | 0.0 | 0.00 | 0.00 | 0.00 | 91 | 1010.8 |
| 20260902082308 | 15 | 70 | 0.0 | 0.0 | 0.00 | 0.00 | 0.00 | 91 | 1010.8 |
| 20260902082231 | 15 | 70 | 0.0 | 0.0 | 0.00 | 0.00 | 0.00 | 91 | 1010.8 |
| 20260902081720 | 15 | 70 | 0.0 | 0.0 | 0.00 | 0.00 | 0.00 | 91 | 1010.8 |
| 20260902081227 | 15 | 70 | 0.0 | 0.0 | 0.00 | 0.00 | 0.00 | 91 | 1010.8 |
| 20260902080734 | 15 | 70 | 0.0 | 0.0 | 0.00 | 0.00 | 0.00 | 91 | 1010.8 |
| 20260902080302 | 15 | 70 | 0.0 | 0.0 | 0.00 | 0.00 | 0.00 | 91 | 1010.8 |
| 20260902075736 | 15 | 70 | 0.0 | 0.0 | 0.00 | 0.00 | 0.00 | 91 | 1010.8 |
| 20260902075224 | 15 | 70 | 0.0 | 0.0 | 0.00 | 0.00 | 0.00 | 91 | 1010.9 |
| 20260902074810 | 15 | 70 | 0.0 | 0.0 | 0.00 | 0.00 | 0.00 | 91 | 1010.8 |
| 20260902074225 | 15 | 70 | 0.0 | 0.0 | 0.00 | 0.00 | 0.00 | 91 | 1011.0 |
| 20260902073732 | 15 | 70 | 0.0 | 0.0 | 0.00 | 0.00 | 0.00 | 91 | 1011.0 |
| 20260902073239 | 15 | 70 | 0.0 | 1.6 | 0.00 | 0.00 | 0.00 | 90 | 1011.0 |
| 20260902072806 | 15 | 70 | 0.0 | 3.2 | 0.00 | 0.00 | 0.00 | 90 | 1011.1 |
| 20260902072223 | 15 | 127 | 0.0 | 0.0 | 0.00 | 0.00 | 0.00 | 91 | 1011.0 |
| 20260902071809 | 15 | 135 | 0.0 | 3.2 | 0.00 | 0.00 | 0.00 | 91 | 1011.1 |
| 20260902071306 | 15 | 135 | 0.0 | 3.2 | 0.00 | 0.00 | 0.00 | 91 | 1011.1 |
| 20260902070721 | 15 | 168 | 0.0 | 3.2 | 0.00 | 0.00 | 0.00 | 91 | 1011.2 |
| 20260902070232 | 15 | 113 | 0.0 | 3.2 | 0.00 | 0.00 | 0.00 | 91 | 1011.2 |
| 20260902065739 | 15 | 126 | 0.0 | 3.2 | 0.00 | 0.00 | 0.00 | 91 | 1011.2 |
| 20260902065227 | 15 | 126 | 1.6 | 3.2 | 0.00 | 0.00 | 0.00 | 91 | 1011.2 |
| 20260902064752 | 15 | 102 | 0.0 | 0.0 | 0.00 | 0.00 | 0.00 | 91 | 1011.2 |
| 20260902064227 | 15 | 102 | 0.0 | 0.0 | 0.00 | 0.00 | 0.00 | 91 | 1011.3 |
| 20260902063734 | 15 | 102 | 0.0 | 3.2 | 0.00 | 0.00 | 0.00 | 91 | 1011.4 |
| 20260902063221 | 15 | 102 | 0.0 | 3.2 | 0.00 | 0.00 | 0.00 | 91 | 1011.3 |
| 20260902062728 | 15 | 102 | 0.0 | 3.2 | 0.00 | 0.00 | 0.00 | 91 | 1011.4 |
| 20260902062237 | 15 | 102 | 1.6 | 3.2 | 0.00 | 0.00 | 0.00 | 91 | 1011.4 |
| 20260902061721 | 15 | 115 | 0.0 | 3.2 | 0.00 | 0.00 | 0.00 | 91 | 1011.5 |
| 20260902061228 | 15 | 119 | 0.0 | 3.2 | 0.00 | 0.00 | 0.00 | 91 | 1011.4 |
| 20260902060739 | 15 | 119 | 1.6 | 3.2 | 0.00 | 0.00 | 0.00 | 91 | 1011.4 |
| 20260902060306 | 15 | 55 | 0.0 | 3.2 | 0.00 | 0.00 | 0.00 | 92 | 1011.5 |
| 20260902055721 | 15 | 55 | 0.0 | 3.2 | 0.00 | 0.00 | 0.00 | 91 | 1011.5 |
| 20260902055309 | 15 | 141 | 0.0 | 0.0 | 0.00 | 0.00 | 0.00 | 92 | 1011.4 |
| 20260902055237 | 15 | 141 | 0.0 | 0.0 | 0.00 | 0.00 | 0.00 | 92 | 1011.4 |
| 20260902054723 | 15 | 141 | 0.0 | 0.0 | 0.00 | 0.00 | 0.00 | 92 | 1011.4 |
| 20260902054230 | 15 | 141 | 0.0 | 0.0 | 0.00 | 0.00 | 0.00 | 92 | 1011.4 |
| 20260902053737 | 15 | 141 | 0.0 | 3.2 | 0.00 | 0.00 | 0.00 | 92 | 1011.5 |
| 20260902053224 | 15 | 141 | 0.0 | 3.2 | 0.00 | 0.00 | 0.00 | 92 | 1011.5 |
| 20260902052731 | 15 | 117 | 0.0 | 3.2 | 0.00 | 0.00 | 0.00 | 92 | 1011.7 |
| 20260902052240 | 15 | 117 | 1.6 | 3.2 | 0.00 | 0.00 | 0.00 | 92 | 1011.7 |
| 20260902051725 | 15 | 70 | 0.0 | 3.2 | 0.00 | 0.00 | 0.00 | 92 | 1011.7 |
| 20260902051232 | 15 | 70 | 0.0 | 3.2 | 0.00 | 0.00 | 0.00 | 92 | 1011.7 |
| 20260902050800 | 15 | 70 | 0.0 | 3.2 | 0.00 | 0.00 | 0.00 | 92 | 1011.8 |
| 20260902050239 | 15 | 70 | 0.0 | 3.2 | 0.00 | 0.00 | 0.00 | 92 | 1011.8 |
| 20260902045726 | 15 | 64 | 0.0 | 3.2 | 0.00 | 0.00 | 0.00 | 92 | 1011.7 |
| 20260902045234 | 15 | 65 | 0.0 | 3.2 | 0.00 | 0.00 | 0.00 | 92 | 1011.8 |
| 20260902044720 | 15 | 47 | 0.0 | 0.0 | 0.00 | 0.00 | 0.00 | 92 | 1011.6 |
| 20260902044227 | 15 | 47 | 0.0 | 0.0 | 0.00 | 0.00 | 0.00 | 92 | 1011.7 |
| 20260902043734 | 15 | 47 | 0.0 | 0.0 | 0.00 | 0.00 | 0.00 | 92 | 1011.6 |
| 20260902043302 | 15 | 47 | 0.0 | 0.0 | 0.00 | 0.00 | 0.00 | 91 | 1011.7 |
| 20260902042737 | 15 | 47 | 0.0 | 0.0 | 0.00 | 0.00 | 0.00 | 91 | 1011.8 |
| 20260902042225 | 15 | 47 | 0.0 | 0.0 | 0.00 | 0.00 | 0.00 | 91 | 1011.8 |
| 20260902041811 | 15 | 46 | 0.0 | 0.0 | 0.00 | 0.00 | 0.00 | 91 | 1011.8 |
| 20260902041740 | 15 | 46 | 0.0 | 0.0 | 0.00 | 0.00 | 0.00 | 91 | 1011.8 |
| 20260902041226 | 15 | 47 | 0.0 | 0.0 | 0.00 | 0.00 | 0.00 | 91 | 1011.7 |
| 20260902040733 | 15 | 47 | 0.0 | 0.0 | 0.00 | 0.00 | 0.00 | 91 | 1011.7 |
| 20260902040224 | 15 | 47 | 0.0 | 0.0 | 0.00 | 0.00 | 0.00 | 91 | 1011.7 |
| 20260902035731 | 15 | 47 | 0.0 | 0.0 | 0.00 | 0.00 | 0.00 | 91 | 1011.7 |
| 20260902035239 | 15 | 46 | 0.0 | 0.0 | 0.00 | 0.00 | 0.00 | 91 | 1011.7 |
| 20260902034725 | 15 | 44 | 0.0 | 0.0 | 0.00 | 0.00 | 0.00 | 91 | 1011.7 |
| 20260902034232 | 15 | 44 | 0.0 | 0.0 | 0.00 | 0.00 | 0.00 | 90 | 1011.7 |